Adams Run, South Carolina
Current Conditions -  °F | °C
As of 12:55 AM on Thursday 23 Oct 2014 (Local Time) from KJZI Reporting Station
Clear Clear  
Wind Chill: 54°   Ceiling: Unl
Heat Index: 54°   Visibility: 10mi
Dew Point: 48°   Wind: 8mph
Humidity: 82%   Direction: 340°NNW
Pressure: 30.07"   Gusts: NA
Location:  32.72°N, 80.35°W
Report Text: KJZI 230455Z AUTO 34007KT 10SM CLR 12/09 A3007 RMK A02 P000
Loading
Personal Weather Stations






























Interactive Weather Map New forecast layout! Learn more

10-Day Weather Forecast

Advertisements
Track Severe Weather on mobile